Time;durP1;ratioP1;P1;durP2;ratioP2;P2;SDS_P1;SDS_P2;PMS_P1;PMS_P2;Temp;Humidity;BMP_temperature;BMP_pressure;BME280_temperature;BME280_humidity;BME280_pressure;Samples;Min_cycle;Max_cycle;Signal;HPM_P1;HPM_P2
2022/02/03 00:00:44;;;;;;;7.65;3.63;;;;;;;;;;4512217;28;20034;-89
2022/02/03 00:05:20;;;;;;;8.73;4.03;;;;;;;;;;4515973;28;20044;-90
2022/02/03 00:07:47;;;;;;;7.32;3.47;;;;;;;;;;4513863;28;20033;-91
2022/02/03 00:24:33;;;;;;;10.18;4.65;;;;;;;;;;4515211;28;20038;-89
2022/02/03 00:26:49;;;;;;;10.45;4.68;;;;;;;;;;4504058;28;20853;-86
2022/02/03 00:29:03;;;;;;;8.90;4.13;;;;;;;;;;4511903;28;20641;-87
2022/02/03 00:31:37;;;;;;;10.50;4.97;;;;;;;;;;4515806;28;20044;-87
2022/02/03 00:34:03;;;;;;;7.88;4.45;;;;;;;;;;4520877;28;20763;-87
2022/02/03 00:48:31;;;;;;;9.05;4.50;;;;;;;;;;4512622;28;20556;-84
2022/02/03 00:50:43;;;;;;;8.30;4.53;;;;;;;;;;4512648;28;20628;-84
2022/02/03 00:52:54;;;;;;;7.72;4.35;;;;;;;;;;4513785;28;20030;-84
2022/02/03 00:55:05;;;;;;;8.57;4.00;;;;;;;;;;4521044;28;20033;-84
2022/02/03 00:57:23;;;;;;;8.38;4.22;;;;;;;;;;4515127;28;20320;-84
2022/02/03 00:59:38;;;;;;;8.23;4.35;;;;;;;;;;4515188;28;20107;-86
2022/02/03 01:01:50;;;;;;;7.88;4.22;;;;;;;;;;4514315;28;20034;-86
2022/02/03 01:04:01;;;;;;;;;;;;;;;;;;4513398;28;20264;-87
2022/02/03 01:06:13;;;;;;;6.18;3.63;;;;;;;;;;4507491;28;19917;-86
2022/02/03 01:08:25;;;;;;;7.03;3.97;;;;;;;;;;4513606;28;20034;-86
2022/02/03 01:10:40;;;;;;;7.55;3.97;;;;;;;;;;4503925;28;20134;-86
2022/02/03 01:44:24;;;;;;;5.68;3.00;;;;;;;;;;4509943;28;20080;-86
2022/02/03 01:46:52;;;;;;;4.55;3.03;;;;;;;;;;4510555;28;20041;-85
2022/02/03 01:49:14;;;;;;;4.55;2.70;;;;;;;;;;4510453;28;20042;-85
2022/02/03 01:51:48;;;;;;;4.78;3.00;;;;;;;;;;4514199;28;20624;-85
2022/02/03 01:53:59;;;;;;;5.32;2.97;;;;;;;;;;4523798;28;20080;-85
2022/02/03 01:56:12;;;;;;;3.80;2.70;;;;;;;;;;4518645;28;20037;-85
2022/02/03 01:58:38;;;;;;;5.05;3.00;;;;;;;;;;4510953;28;20034;-84
2022/02/03 02:00:59;;;;;;;4.47;2.78;;;;;;;;;;4509976;28;20030;-85
2022/02/03 02:03:09;;;;;;;4.85;2.80;;;;;;;;;;4511567;28;20096;-84
2022/02/03 02:05:37;;;;;;;4.43;2.50;;;;;;;;;;4511332;28;20104;-84
2022/02/03 02:07:57;;;;;;;4.45;2.65;;;;;;;;;;4510655;28;20044;-84
2022/02/03 02:10:56;;;;;;;4.45;2.88;;;;;;;;;;4514337;28;20045;-84
2022/02/03 02:38:40;;;;;;;5.05;3.15;;;;;;;;;;4518038;28;20146;-83
2022/02/03 02:43:30;;;;;;;5.20;3.50;;;;;;;;;;4519139;28;20667;-84
2022/02/03 02:46:01;;;;;;;4.45;3.17;;;;;;;;;;4512928;28;20018;-83
2022/02/03 02:48:32;;;;;;;4.80;3.25;;;;;;;;;;4507627;28;20356;-83
2022/02/03 02:51:05;;;;;;;5.00;3.00;;;;;;;;;;4509646;28;20045;-83
2022/02/03 02:53:43;;;;;;;4.15;2.85;;;;;;;;;;4510249;28;20241;-84
2022/02/03 02:56:17;;;;;;;4.60;2.90;;;;;;;;;;4511292;28;20040;-84
2022/02/03 02:58:54;;;;;;;5.07;2.90;;;;;;;;;;4511877;28;20069;-84
2022/02/03 03:31:21;;;;;;;4.68;3.17;;;;;;;;;;4459005;28;20053;-84
2022/02/03 03:34:45;;;;;;;4.82;2.80;;;;;;;;;;4499658;28;20124;-84
2022/02/03 03:36:17;;;;;;;4.72;2.78;;;;;;;;;;4492810;28;20050;-84
2022/02/03 03:38:34;;;;;;;3.95;2.75;;;;;;;;;;4508456;28;20052;-84
2022/02/03 03:40:53;;;;;;;4.10;3.00;;;;;;;;;;4509012;28;20038;-84
2022/02/03 03:43:09;;;;;;;3.95;2.83;;;;;;;;;;4508470;28;20042;-84
2022/02/03 03:45:20;;;;;;;4.93;3.20;;;;;;;;;;4509794;28;20846;-84
2022/02/03 03:47:35;;;;;;;3.97;3.05;;;;;;;;;;4509336;28;20041;-85
2022/02/03 03:49:48;;;;;;;4.53;3.30;;;;;;;;;;4518245;28;20068;-84
2022/02/03 03:52:10;;;;;;;5.30;3.60;;;;;;;;;;4511161;28;20049;-83
2022/02/03 03:54:52;;;;;;;4.10;2.92;;;;;;;;;;4508397;28;20089;-83
2022/02/03 03:57:18;;;;;;;3.90;2.90;;;;;;;;;;4506663;28;20076;-83
2022/02/03 04:44:14;;;;;;;3.05;1.95;;;;;;;;;;4513868;28;20565;-83
2022/02/03 04:55:15;;;;;;;1.80;1.63;;;;;;;;;;4512193;28;20148;-83
2022/02/03 05:03:20;;;;;;;2.58;2.00;;;;;;;;;;4510178;28;20045;-83
2022/02/03 05:05:56;;;;;;;2.65;1.80;;;;;;;;;;4511016;28;20042;-83
2022/02/03 05:22:17;;;;;;;2.80;2.42;;;;;;;;;;4510820;28;20084;-84
2022/02/03 05:25:11;;;;;;;3.70;2.70;;;;;;;;;;4511898;28;20064;-83
2022/02/03 05:44:03;;;;;;;3.30;2.70;;;;;;;;;;4511950;28;20045;-84
2022/02/03 06:04:10;;;;;;;2.53;2.30;;;;;;;;;;4511456;28;20076;-85
2022/02/03 06:09:28;;;;;;;2.30;2.10;;;;;;;;;;4492710;28;20053;-85
2022/02/03 06:14:19;;;;;;;6.00;4.25;;;;;;;;;;4512633;28;20042;-85
2022/02/03 06:23:25;;;;;;;3.23;2.70;;;;;;;;;;4508574;28;20037;-84
2022/02/03 06:28:05;;;;;;;3.13;2.25;;;;;;;;;;4508759;28;20034;-84
2022/02/03 06:30:19;;;;;;;2.37;1.90;;;;;;;;;;4510051;28;20494;-84
2022/02/03 06:32:29;;;;;;;2.03;1.83;;;;;;;;;;4510738;28;20600;-85
2022/02/03 06:34:40;;;;;;;2.43;2.20;;;;;;;;;;4509576;28;26235;-85
2022/02/03 06:36:53;;;;;;;2.67;2.30;;;;;;;;;;4509559;28;20040;-84
2022/02/03 06:39:21;;;;;;;2.42;2.22;;;;;;;;;;4526885;28;20026;-84
2022/02/03 06:41:35;;;;;;;3.25;2.70;;;;;;;;;;4511900;28;20045;-84
2022/02/03 06:43:45;;;;;;;3.67;2.75;;;;;;;;;;4510201;28;20030;-84
2022/02/03 06:46:01;;;;;;;3.03;2.20;;;;;;;;;;4510869;28;20635;-84
2022/02/03 06:48:16;;;;;;;2.70;2.20;;;;;;;;;;4510155;28;20034;-85
2022/02/03 06:50:32;;;;;;;3.63;2.63;;;;;;;;;;4510898;28;20156;-84
2022/02/03 06:55:26;;;;;;;3.67;2.90;;;;;;;;;;4509786;28;20073;-84
2022/02/03 06:57:37;;;;;;;2.78;2.47;;;;;;;;;;4509146;28;20050;-86
2022/02/03 07:00:05;;;;;;;3.13;2.70;;;;;;;;;;4518686;28;20037;-85
2022/02/03 07:02:15;;;;;;;3.15;2.60;;;;;;;;;;4512633;28;20116;-85
2022/02/03 07:04:29;;;;;;;3.20;2.80;;;;;;;;;;4509944;28;20472;-85
2022/02/03 07:06:39;;;;;;;3.20;2.60;;;;;;;;;;4510589;28;20033;-85
2022/02/03 07:08:51;;;;;;;3.50;3.10;;;;;;;;;;4518527;28;20025;-85
2022/02/03 07:11:03;;;;;;;3.25;2.95;;;;;;;;;;4510960;28;20061;-85
2022/02/03 07:13:15;;;;;;;3.55;2.90;;;;;;;;;;4509468;28;20034;-85
2022/02/03 07:15:25;;;;;;;3.63;2.90;;;;;;;;;;4509208;28;20026;-85
2022/02/03 07:17:37;;;;;;;4.40;3.57;;;;;;;;;;4509450;28;20037;-85
2022/02/03 07:19:49;;;;;;;3.78;2.97;;;;;;;;;;4509521;28;20029;-85
2022/02/03 07:22:00;;;;;;;4.30;3.35;;;;;;;;;;4510545;28;21000;-86
2022/02/03 07:24:10;;;;;;;4.53;3.57;;;;;;;;;;4509723;28;20060;-86
2022/02/03 07:26:20;;;;;;;4.30;3.00;;;;;;;;;;4507264;28;31698;-86
2022/02/03 07:28:33;;;;;;;3.30;2.80;;;;;;;;;;4508155;28;30164;-86
2022/02/03 07:30:43;;;;;;;3.88;3.08;;;;;;;;;;4509489;28;20046;-86
2022/02/03 07:32:57;;;;;;;3.90;2.73;;;;;;;;;;4509337;28;20174;-86
2022/02/03 07:35:09;;;;;;;3.55;3.00;;;;;;;;;;4509254;28;20030;-86
2022/02/03 07:37:23;;;;;;;3.10;2.70;;;;;;;;;;4487303;28;20030;-86
2022/02/03 07:39:35;;;;;;;3.90;3.15;;;;;;;;;;4508683;28;20045;-86
2022/02/03 07:41:45;;;;;;;5.05;2.85;;;;;;;;;;4525136;28;20030;-85
2022/02/03 07:43:59;;;;;;;4.70;3.53;;;;;;;;;;4509151;28;20406;-86
2022/02/03 07:46:09;;;;;;;4.90;2.92;;;;;;;;;;4509299;28;20043;-86
2022/02/03 07:48:20;;;;;;;3.83;3.10;;;;;;;;;;4517672;28;20032;-85
2022/02/03 07:50:31;;;;;;;3.97;2.90;;;;;;;;;;4516893;28;20044;-86
2022/02/03 07:52:42;;;;;;;3.67;2.40;;;;;;;;;;4510646;28;20038;-87
2022/02/03 07:54:53;;;;;;;2.42;2.15;;;;;;;;;;4511049;28;20037;-87
2022/02/03 07:57:03;;;;;;;3.57;2.43;;;;;;;;;;4513151;28;34374;-87
2022/02/03 07:59:14;;;;;;;4.07;2.53;;;;;;;;;;4512633;28;20037;-87
2022/02/03 08:01:24;;;;;;;2.87;2.23;;;;;;;;;;4510811;28;39757;-87
2022/02/03 08:03:40;;;;;;;2.37;2.10;;;;;;;;;;4511460;28;20099;-87
2022/02/03 08:05:57;;;;;;;2.75;2.35;;;;;;;;;;4514157;28;20033;-87
2022/02/03 08:08:18;;;;;;;2.58;2.03;;;;;;;;;;4506341;28;20823;-87
2022/02/03 08:10:36;;;;;;;2.58;2.35;;;;;;;;;;4513446;28;20863;-88
2022/02/03 08:12:48;;;;;;;3.08;2.42;;;;;;;;;;4511903;28;20627;-87
2022/02/03 08:15:00;;;;;;;2.28;2.00;;;;;;;;;;4511025;28;20592;-86
2022/02/03 08:17:17;;;;;;;2.47;2.20;;;;;;;;;;4513331;28;20313;-88
2022/02/03 08:20:16;;;;;;;3.50;2.40;;;;;;;;;;4509848;28;20394;-87
2022/02/03 08:22:03;;;;;;;2.60;2.38;;;;;;;;;;4501882;28;20053;-87
2022/02/03 08:24:21;;;;;;;2.85;2.50;;;;;;;;;;4510689;28;20088;-88
2022/02/03 08:26:47;;;;;;;2.85;2.30;;;;;;;;;;4520442;28;20045;-87
2022/02/03 08:29:14;;;;;;;3.08;2.38;;;;;;;;;;4512457;28;20602;-88
2022/02/03 08:31:37;;;;;;;4.30;2.28;;;;;;;;;;4511591;28;20108;-90
2022/02/03 08:33:50;;;;;;;2.85;2.55;;;;;;;;;;4511883;28;21326;-89
2022/02/03 08:36:06;;;;;;;3.92;2.97;;;;;;;;;;4510977;28;20636;-90
2022/02/03 08:38:32;;;;;;;3.50;3.20;;;;;;;;;;4511929;28;20887;-89
2022/02/03 08:43:02;;;;;;;4.25;3.00;;;;;;;;;;4511201;28;20025;-91
2022/02/03 08:45:13;;;;;;;3.53;3.00;;;;;;;;;;4512170;28;20038;-90
2022/02/03 08:47:23;;;;;;;3.77;3.20;;;;;;;;;;4513450;28;20042;-91
2022/02/03 08:49:38;;;;;;;4.17;3.53;;;;;;;;;;4512222;28;39876;-91
2022/02/03 08:51:49;;;;;;;4.40;2.80;;;;;;;;;;4513961;28;20026;-91
2022/02/03 08:54:08;;;;;;;3.35;2.40;;;;;;;;;;4517701;28;20036;-91
2022/02/03 08:56:40;;;;;;;4.45;2.72;;;;;;;;;;4532391;28;20187;-91
2022/02/03 09:59:31;;;;;;;3.35;2.40;;;;;;;;;;4511048;28;20038;-84
2022/02/03 10:01:46;;;;;;;2.80;2.28;;;;;;;;;;4506233;28;20038;-84
2022/02/03 10:04:22;;;;;;;2.47;2.20;;;;;;;;;;4514003;28;20037;-82
2022/02/03 10:06:41;;;;;;;2.80;2.33;;;;;;;;;;4510727;28;20037;-83
2022/02/03 10:08:54;;;;;;;3.33;2.42;;;;;;;;;;4511827;28;20026;-86
2022/02/03 10:11:15;;;;;;;3.10;2.30;;;;;;;;;;4527975;28;20041;-77
2022/02/03 10:13:25;;;;;;;2.83;2.05;;;;;;;;;;4509811;28;20038;-75
2022/02/03 10:15:36;;;;;;;3.60;2.43;;;;;;;;;;4517064;28;20042;-76
2022/02/03 10:17:49;;;;;;;2.10;1.90;;;;;;;;;;4497989;28;20040;-79
2022/02/03 10:20:06;;;;;;;2.53;2.00;;;;;;;;;;4511826;28;20733;-79
2022/02/03 10:22:20;;;;;;;3.55;2.40;;;;;;;;;;4510139;28;20037;-78
2022/02/03 10:24:36;;;;;;;2.58;2.28;;;;;;;;;;4508217;28;20049;-77
2022/02/03 10:26:51;;;;;;;3.67;2.30;;;;;;;;;;4511293;28;20042;-77
2022/02/03 10:29:03;;;;;;;3.72;2.42;;;;;;;;;;4508182;28;20797;-69
2022/02/03 10:31:14;;;;;;;3.03;2.53;;;;;;;;;;4513093;28;20600;-82
2022/02/03 10:33:36;;;;;;;3.10;2.70;;;;;;;;;;4493178;28;20065;-81
2022/02/03 10:35:55;;;;;;;3.40;2.60;;;;;;;;;;4507069;28;20104;-82
2022/02/03 10:41:09;;;;;;;3.70;2.95;;;;;;;;;;4509600;28;20549;-73
2022/02/03 10:51:38;;;;;;;4.97;3.38;;;;;;;;;;4509967;28;20042;-72
2022/02/03 10:58:51;;;;;;;2.72;2.25;;;;;;;;;;4509981;28;20033;-70
2022/02/03 11:08:12;;;;;;;3.90;2.67;;;;;;;;;;4507542;28;20919;-71
2022/02/03 11:12:33;;;;;;;3.63;2.67;;;;;;;;;;4511681;28;20037;-71
2022/02/03 11:14:44;;;;;;;2.87;2.53;;;;;;;;;;4507144;28;20132;-71
2022/02/03 11:16:54;;;;;;;3.63;2.88;;;;;;;;;;4494757;28;20042;-71
2022/02/03 11:19:10;;;;;;;3.03;2.60;;;;;;;;;;4507590;28;21449;-71
2022/02/03 11:21:21;;;;;;;3.15;2.60;;;;;;;;;;4507782;28;20071;-71
2022/02/03 11:23:42;;;;;;;3.63;2.63;;;;;;;;;;4510326;28;20034;-71
2022/02/03 11:26:09;;;;;;;3.60;2.55;;;;;;;;;;4508846;28;20037;-71
2022/02/03 11:28:42;;;;;;;3.40;2.65;;;;;;;;;;4507027;28;20041;-71
2022/02/03 11:38:35;;;;;;;3.37;2.47;;;;;;;;;;4511616;28;20084;-71
2022/02/03 11:41:21;;;;;;;2.55;1.92;;;;;;;;;;4512458;28;20264;-71
2022/02/03 11:56:15;;;;;;;2.70;2.10;;;;;;;;;;4509728;28;20573;-71
2022/02/03 12:14:59;;;;;;;1.75;1.50;;;;;;;;;;4488254;28;20259;-71
2022/02/03 12:20:07;;;;;;;1.70;1.20;;;;;;;;;;4491401;28;20052;-71
2022/02/03 12:22:57;;;;;;;1.55;1.40;;;;;;;;;;4511870;28;20608;-71
2022/02/03 12:25:31;;;;;;;1.55;1.30;;;;;;;;;;4511822;28;20316;-71
2022/02/03 12:30:03;;;;;;;1.65;1.33;;;;;;;;;;4493680;28;20035;-71
2022/02/03 12:42:18;;;;;;;2.07;1.30;;;;;;;;;;4510226;28;20038;-71
2022/02/03 12:44:29;;;;;;;1.60;1.33;;;;;;;;;;4510054;28;20124;-71
2022/02/03 12:46:39;;;;;;;;;;;;;;;;;;4511347;28;20034;-71
2022/02/03 12:48:55;;;;;;;2.70;1.55;;;;;;;;;;4509530;28;19918;-71
2022/02/03 12:51:05;;;;;;;2.10;1.70;;;;;;;;;;4511924;28;20053;-70
2022/02/03 12:53:16;;;;;;;1.83;1.60;;;;;;;;;;4512542;28;31946;-71
2022/02/03 12:55:29;;;;;;;2.30;1.40;;;;;;;;;;4512217;28;24197;-71
2022/02/03 12:57:40;;;;;;;2.50;1.80;;;;;;;;;;4511358;28;20042;-71
2022/02/03 13:00:04;;;;;;;1.87;1.57;;;;;;;;;;4509819;28;25305;-71
2022/02/03 13:02:17;;;;;;;2.35;1.77;;;;;;;;;;4511637;28;20647;-71
2022/02/03 13:04:27;;;;;;;3.33;1.65;;;;;;;;;;4512452;28;20057;-71
2022/02/03 13:06:55;;;;;;;2.07;1.70;;;;;;;;;;4508780;28;20109;-71
2022/02/03 13:09:08;;;;;;;2.30;1.90;;;;;;;;;;4511099;28;20042;-71
2022/02/03 13:11:29;;;;;;;2.38;1.90;;;;;;;;;;4511254;28;20053;-71
2022/02/03 13:16:27;;;;;;;2.22;1.83;;;;;;;;;;4494282;28;20117;-71
2022/02/03 13:18:47;;;;;;;2.03;1.70;;;;;;;;;;4506455;28;20046;-72
2022/02/03 13:21:06;;;;;;;2.78;2.20;;;;;;;;;;4495609;28;20680;-72
2022/02/03 13:23:21;;;;;;;3.10;2.35;;;;;;;;;;4509799;28;20593;-71
2022/02/03 13:25:45;;;;;;;2.95;2.25;;;;;;;;;;4510667;28;20033;-71
2022/02/03 13:30:13;;;;;;;3.73;2.80;;;;;;;;;;4510897;28;20049;-71
2022/02/03 13:32:29;;;;;;;3.38;2.63;;;;;;;;;;4509811;28;20032;-71
2022/02/03 13:36:57;;;;;;;3.67;2.60;;;;;;;;;;4510299;28;20808;-72
2022/02/03 13:39:12;;;;;;;4.50;2.80;;;;;;;;;;4510357;28;20149;-71
2022/02/03 13:41:26;;;;;;;3.42;2.33;;;;;;;;;;4510731;28;20051;-71
2022/02/03 13:43:42;;;;;;;3.80;2.50;;;;;;;;;;4512503;28;20025;-71
2022/02/03 13:45:53;;;;;;;3.28;2.28;;;;;;;;;;4513218;28;21370;-72
2022/02/03 13:48:19;;;;;;;4.10;2.27;;;;;;;;;;4511351;28;20100;-72
2022/02/03 13:50:31;;;;;;;3.08;2.30;;;;;;;;;;4510242;28;20041;-71
2022/02/03 14:10:28;;;;;;;3.23;2.40;;;;;;;;;;4509880;28;20040;-71
2022/02/03 14:27:43;;;;;;;3.10;2.00;;;;;;;;;;4517159;28;20040;-72
2022/02/03 14:30:01;;;;;;;2.40;1.85;;;;;;;;;;4509346;28;20046;-71
2022/02/03 14:32:14;;;;;;;3.25;1.83;;;;;;;;;;4511084;28;20683;-71
2022/02/03 14:34:30;;;;;;;3.67;2.15;;;;;;;;;;4509990;28;20228;-71
2022/02/03 14:36:43;;;;;;;3.10;2.05;;;;;;;;;;4509057;28;20038;-72
2022/02/03 14:39:06;;;;;;;2.30;1.67;;;;;;;;;;4506998;28;20034;-71
2022/02/03 14:41:25;;;;;;;2.97;2.10;;;;;;;;;;4508694;28;20041;-71
2022/02/03 14:43:35;;;;;;;2.13;1.80;;;;;;;;;;4510880;28;20038;-71
2022/02/03 14:45:45;;;;;;;3.13;1.90;;;;;;;;;;4516593;28;20029;-71
2022/02/03 14:47:56;;;;;;;2.97;1.90;;;;;;;;;;4509017;28;20133;-71
2022/02/03 14:50:09;;;;;;;2.40;1.73;;;;;;;;;;4508854;28;20589;-70
2022/02/03 14:59:12;;;;;;;3.22;1.70;;;;;;;;;;4509964;28;20042;-71
2022/02/03 15:01:22;;;;;;;3.33;2.10;;;;;;;;;;4508972;28;20028;-71
2022/02/03 15:03:32;;;;;;;4.23;2.37;;;;;;;;;;4507637;28;20038;-71
2022/02/03 15:05:43;;;;;;;2.60;1.97;;;;;;;;;;4509107;28;20048;-71
2022/02/03 15:08:05;;;;;;;3.50;2.50;;;;;;;;;;4506591;28;20045;-71
2022/02/03 15:10:29;;;;;;;3.08;2.00;;;;;;;;;;4510750;28;20068;-71
2022/02/03 15:12:55;;;;;;;3.22;2.08;;;;;;;;;;4509933;28;20601;-74
2022/02/03 15:15:08;;;;;;;2.92;1.90;;;;;;;;;;4507533;28;20028;-76
2022/02/03 15:17:21;;;;;;;3.85;2.25;;;;;;;;;;4509184;28;20042;-84
2022/02/03 15:19:32;;;;;;;4.15;3.13;;;;;;;;;;4510225;28;20041;-77
2022/02/03 15:21:42;;;;;;;4.70;3.17;;;;;;;;;;4508862;28;27363;-75
2022/02/03 15:23:53;;;;;;;4.07;2.77;;;;;;;;;;4517663;28;20496;-77
2022/02/03 15:26:05;;;;;;;2.60;2.20;;;;;;;;;;4507853;28;39955;-77
2022/02/03 15:28:17;;;;;;;5.00;3.10;;;;;;;;;;4509693;28;20583;-74
2022/02/03 15:30:28;;;;;;;4.93;3.30;;;;;;;;;;4511174;28;20741;-72
2022/02/03 15:32:41;;;;;;;3.90;2.37;;;;;;;;;;4507063;28;20033;-75
2022/02/03 15:34:53;;;;;;;1.67;1.58;;;;;;;;;;4517193;28;20163;-74
2022/02/03 15:37:11;;;;;;;2.47;1.77;;;;;;;;;;4507262;28;20068;-73
2022/02/03 15:39:32;;;;;;;1.95;1.52;;;;;;;;;;4508713;28;20793;-72
2022/02/03 15:41:43;;;;;;;4.10;1.63;;;;;;;;;;4509415;28;21084;-71
2022/02/03 15:43:56;;;;;;;2.50;1.73;;;;;;;;;;4509544;28;20188;-73
2022/02/03 15:46:06;;;;;;;2.20;1.77;;;;;;;;;;4508567;28;20132;-72
2022/02/03 16:03:12;;;;;;;3.20;1.70;;;;;;;;;;4509161;28;20612;-75
2022/02/03 16:17:49;;;;;;;3.13;2.08;;;;;;;;;;4512332;28;21248;-76
2022/02/03 16:20:26;;;;;;;2.65;1.77;;;;;;;;;;4512301;28;20607;-74
2022/02/03 16:22:49;;;;;;;3.03;2.20;;;;;;;;;;4512195;28;20104;-85
2022/02/03 16:25:16;;;;;;;3.58;2.30;;;;;;;;;;4513004;28;20593;-78
2022/02/03 16:54:19;;;;;;;2.67;2.13;;;;;;;;;;4509625;28;20133;-79
2022/02/03 16:56:29;;;;;;;3.42;2.63;;;;;;;;;;4511095;28;20140;-78
2022/02/03 16:58:42;;;;;;;3.33;2.20;;;;;;;;;;4497107;28;20165;-78
2022/02/03 17:00:53;;;;;;;2.67;2.25;;;;;;;;;;4512990;28;20035;-78
2022/02/03 17:03:04;;;;;;;3.42;2.35;;;;;;;;;;4513354;28;21041;-78
2022/02/03 17:05:15;;;;;;;2.43;2.00;;;;;;;;;;4512990;28;20046;-78
2022/02/03 17:07:25;;;;;;;4.37;2.20;;;;;;;;;;4511208;28;35092;-78
2022/02/03 17:09:38;;;;;;;2.70;2.40;;;;;;;;;;4511278;28;20048;-78
2022/02/03 17:11:48;;;;;;;4.00;2.47;;;;;;;;;;4513058;28;20393;-78
2022/02/03 17:13:59;;;;;;;3.97;2.53;;;;;;;;;;4512903;28;20487;-78
2022/02/03 17:16:14;;;;;;;5.55;3.72;;;;;;;;;;4519150;28;20038;-78
2022/02/03 17:18:24;;;;;;;8.40;6.30;;;;;;;;;;4512036;28;20049;-78
2022/02/03 17:20:38;;;;;;;6.60;5.07;;;;;;;;;;4514026;28;20064;-78
2022/02/03 17:22:51;;;;;;;5.18;3.40;;;;;;;;;;4511005;28;20522;-79
2022/02/03 17:25:15;;;;;;;3.67;2.70;;;;;;;;;;4512534;28;20123;-79
2022/02/03 17:27:55;;;;;;;3.08;2.50;;;;;;;;;;4510025;28;20049;-79
2022/02/03 17:30:07;;;;;;;3.17;2.40;;;;;;;;;;4510381;28;20061;-79
2022/02/03 18:09:36;;;;;;;2.08;1.70;;;;;;;;;;4512061;28;20038;-80
2022/02/03 18:27:36;;;;;;;4.25;2.17;;;;;;;;;;4510273;28;20032;-71
2022/02/03 18:32:02;;;;;;;2.47;2.13;;;;;;;;;;4518358;28;20040;-70
2022/02/03 18:34:24;;;;;;;2.45;1.90;;;;;;;;;;4510209;28;20581;-73
2022/02/03 18:51:13;;;;;;;4.28;2.60;;;;;;;;;;4513096;28;20041;-75
2022/02/03 18:53:53;;;;;;;2.70;2.47;;;;;;;;;;4509703;28;20022;-70
2022/02/03 18:58:46;;;;;;;2.90;2.50;;;;;;;;;;4507540;28;20162;-71
2022/02/03 19:09:25;;;;;;;2.40;2.20;;;;;;;;;;4508979;28;20670;-73
2022/02/03 19:09:40;;;;;;;3.08;2.40;;;;;;;;;;4509883;28;20038;-72
2022/02/03 19:16:10;;;;;;;3.58;2.78;;;;;;;;;;4509208;28;20037;-72
2022/02/03 20:05:06;;;;;;;4.72;3.70;;;;;;;;;;4511823;28;20121;-72
2022/02/03 20:07:47;;;;;;;4.85;3.83;;;;;;;;;;4511718;28;20018;-73
2022/02/03 20:10:08;;;;;;;4.38;3.60;;;;;;;;;;4511363;28;20120;-72
2022/02/03 20:12:19;;;;;;;3.87;3.37;;;;;;;;;;4512857;28;20089;-70
2022/02/03 20:14:29;;;;;;;4.20;3.37;;;;;;;;;;4512358;28;20066;-70
2022/02/03 20:16:40;;;;;;;4.10;3.50;;;;;;;;;;4511825;28;20632;-70
2022/02/03 20:18:51;;;;;;;4.00;3.28;;;;;;;;;;4510918;28;20503;-70
2022/02/03 20:21:01;;;;;;;3.70;3.00;;;;;;;;;;4512294;28;20468;-70
2022/02/03 20:23:15;;;;;;;4.30;3.20;;;;;;;;;;4510551;28;20030;-70
2022/02/03 20:25:26;;;;;;;5.00;3.47;;;;;;;;;;4511632;28;20038;-70
2022/02/03 20:27:37;;;;;;;4.65;3.33;;;;;;;;;;4513098;28;20034;-70
2022/02/03 20:29:49;;;;;;;4.13;3.33;;;;;;;;;;4511251;28;20049;-70
2022/02/03 20:32:00;;;;;;;5.82;4.07;;;;;;;;;;4510483;28;20906;-70
2022/02/03 20:34:10;;;;;;;4.57;3.70;;;;;;;;;;4511718;28;34238;-70
2022/02/03 20:36:21;;;;;;;3.83;3.43;;;;;;;;;;4509562;28;20782;-70
2022/02/03 20:38:31;;;;;;;3.50;3.00;;;;;;;;;;4510078;28;20044;-70
2022/02/03 20:40:43;;;;;;;4.07;3.67;;;;;;;;;;4511446;28;26230;-70
2022/02/03 20:42:53;;;;;;;;;;;;;;;;;;4512288;28;20041;-70
2022/02/03 20:45:05;;;;;;;5.05;3.65;;;;;;;;;;4510700;28;19917;-70
2022/02/03 20:47:15;;;;;;;4.32;3.42;;;;;;;;;;4510176;28;20034;-72
2022/02/03 20:49:26;;;;;;;4.20;3.40;;;;;;;;;;4508508;28;20034;-71
2022/02/03 20:51:37;;;;;;;3.97;3.10;;;;;;;;;;4514033;28;20077;-71
2022/02/03 20:53:48;;;;;;;4.82;3.67;;;;;;;;;;4512095;28;20088;-71
2022/02/03 20:56:00;;;;;;;4.07;3.50;;;;;;;;;;4512243;28;20045;-71
2022/02/03 20:58:14;;;;;;;;;;;;;;;;;;4509602;28;20046;-71
2022/02/03 21:00:47;;;;;;;4.45;3.50;;;;;;;;;;4511051;28;20087;-71
2022/02/03 21:03:03;;;;;;;6.00;3.80;;;;;;;;;;4511194;28;20056;-71
2022/02/03 21:05:16;;;;;;;4.82;3.80;;;;;;;;;;4511198;28;20030;-71
2022/02/03 21:07:26;;;;;;;4.70;4.05;;;;;;;;;;4512053;28;20038;-71
2022/02/03 21:09:36;;;;;;;5.07;3.90;;;;;;;;;;4512921;28;20237;-70
2022/02/03 21:11:47;;;;;;;4.70;3.90;;;;;;;;;;4510400;28;20034;-70
2022/02/03 21:13:58;;;;;;;5.40;4.00;;;;;;;;;;4515629;28;36759;-71
2022/02/03 21:16:08;;;;;;;4.80;3.70;;;;;;;;;;4510614;28;20038;-70
2022/02/03 21:18:20;;;;;;;5.27;4.00;;;;;;;;;;4510401;28;20038;-70
2022/02/03 21:20:30;;;;;;;5.03;4.20;;;;;;;;;;4511676;28;20045;-71
2022/02/03 21:22:41;;;;;;;6.43;3.70;;;;;;;;;;4513127;28;20044;-70
2022/02/03 21:24:59;;;;;;;4.97;3.80;;;;;;;;;;4510639;28;20029;-70
2022/02/03 21:27:16;;;;;;;6.05;4.00;;;;;;;;;;4514610;28;20037;-71
2022/02/03 21:29:27;;;;;;;5.10;4.22;;;;;;;;;;4510073;28;20041;-70
2022/02/03 21:31:38;;;;;;;4.80;3.80;;;;;;;;;;4498131;28;20805;-71
2022/02/03 21:33:53;;;;;;;5.20;3.83;;;;;;;;;;4512818;28;20042;-71
2022/02/03 21:36:11;;;;;;;4.85;3.70;;;;;;;;;;4527090;28;20598;-70
2022/02/03 21:38:21;;;;;;;4.30;3.65;;;;;;;;;;4511767;28;20132;-71
2022/02/03 21:40:32;;;;;;;5.23;3.77;;;;;;;;;;4510711;28;20145;-71
2022/02/03 21:42:47;;;;;;;4.25;3.72;;;;;;;;;;4495320;28;20957;-71
2022/02/03 21:44:57;;;;;;;4.05;3.60;;;;;;;;;;4525178;28;20049;-71
2022/02/03 21:47:08;;;;;;;5.30;3.73;;;;;;;;;;4509567;28;20048;-71
2022/02/03 21:49:21;;;;;;;5.33;3.80;;;;;;;;;;4509861;28;20025;-71
2022/02/03 21:51:39;;;;;;;5.30;4.18;;;;;;;;;;4508346;28;20042;-71
2022/02/03 21:53:50;;;;;;;4.97;4.15;;;;;;;;;;4510883;28;20037;-71
2022/02/03 21:56:01;;;;;;;5.70;4.85;;;;;;;;;;4509926;28;20570;-71
2022/02/03 21:58:12;;;;;;;5.93;4.63;;;;;;;;;;4498527;28;20141;-71
2022/02/03 22:00:23;;;;;;;5.95;4.60;;;;;;;;;;4510385;28;20335;-71
2022/02/03 22:02:33;;;;;;;5.10;4.07;;;;;;;;;;4509292;28;20451;-71
2022/02/03 22:04:44;;;;;;;4.77;4.10;;;;;;;;;;4510544;28;20044;-71
2022/02/03 22:06:55;;;;;;;5.18;4.25;;;;;;;;;;4511911;28;20033;-71
2022/02/03 22:09:08;;;;;;;7.28;4.88;;;;;;;;;;4517327;28;20029;-71
2022/02/03 22:11:18;;;;;;;6.00;4.60;;;;;;;;;;4510022;28;20417;-71
2022/02/03 22:13:37;;;;;;;5.80;4.40;;;;;;;;;;4509661;28;28412;-71
2022/02/03 22:15:48;;;;;;;6.30;4.60;;;;;;;;;;4509693;28;20041;-71
2022/02/03 22:18:02;;;;;;;6.35;4.57;;;;;;;;;;4510401;28;20041;-71
2022/02/03 22:23:16;;;;;;;6.18;4.68;;;;;;;;;;4508301;28;20050;-71
2022/02/03 22:28:05;;;;;;;5.95;4.60;;;;;;;;;;4509308;28;20025;-71
2022/02/03 22:41:08;;;;;;;5.38;4.15;;;;;;;;;;4510125;28;21372;-71
2022/02/03 22:45:18;;;;;;;4.90;4.38;;;;;;;;;;4509410;28;20038;-71
2022/02/03 22:48:00;;;;;;;6.53;4.65;;;;;;;;;;4509723;28;20126;-71
2022/02/03 22:50:10;;;;;;;6.47;5.20;;;;;;;;;;4508913;28;20219;-71
2022/02/03 22:52:21;;;;;;;6.80;5.07;;;;;;;;;;4510207;28;20154;-70
2022/02/03 22:54:31;;;;;;;6.47;5.20;;;;;;;;;;4513424;28;20997;-71
2022/02/03 22:56:42;;;;;;;7.43;5.10;;;;;;;;;;4511648;28;38652;-70
2022/02/03 23:01:13;;;;;;;6.22;5.03;;;;;;;;;;4510458;28;20107;-71
2022/02/03 23:03:24;;;;;;;6.95;5.28;;;;;;;;;;4500664;28;20042;-70
2022/02/03 23:05:34;;;;;;;6.30;4.85;;;;;;;;;;4511112;28;20030;-70
2022/02/03 23:10:00;;;;;;;6.93;4.73;;;;;;;;;;4509175;28;23400;-71
2022/02/03 23:12:15;;;;;;;6.43;5.22;;;;;;;;;;4510324;28;20380;-70
2022/02/03 23:19:38;;;;;;;7.10;5.20;;;;;;;;;;4511050;28;20256;-71
2022/02/03 23:23:57;;;;;;;6.53;5.10;;;;;;;;;;4509890;28;20037;-71
2022/02/03 23:26:10;;;;;;;7.47;5.40;;;;;;;;;;4507052;28;20678;-71
2022/02/03 23:28:30;;;;;;;6.45;5.05;;;;;;;;;;4507399;28;20548;-71
2022/02/03 23:30:42;;;;;;;6.40;5.13;;;;;;;;;;4510199;28;20044;-71
2022/02/03 23:32:54;;;;;;;7.55;5.10;;;;;;;;;;4510855;28;20540;-70
2022/02/03 23:35:28;;;;;;;6.70;4.90;;;;;;;;;;4509412;28;20038;-70
2022/02/03 23:37:39;;;;;;;6.15;4.78;;;;;;;;;;4508647;28;20050;-71
2022/02/03 23:40:09;;;;;;;7.68;5.05;;;;;;;;;;4508494;28;21208;-71
